sensor_id;sensor_type;location;lat;lon;timestamp;temperature;humidity
12115;DHT22;6121;49.810;6.418;2022-11-15T00:00:24;11.20;99.90
12115;DHT22;6121;49.810;6.418;2022-11-15T00:02:51;11.20;99.90
12115;DHT22;6121;49.810;6.418;2022-11-15T00:05:17;11.10;99.90
12115;DHT22;6121;49.810;6.418;2022-11-15T00:07:42;11.20;99.90
12115;DHT22;6121;49.810;6.418;2022-11-15T00:10:08;11.40;99.90
12115;DHT22;6121;49.810;6.418;2022-11-15T00:12:34;11.50;99.90
12115;DHT22;6121;49.810;6.418;2022-11-15T00:14:59;11.50;99.90
12115;DHT22;6121;49.810;6.418;2022-11-15T00:17:25;11.70;99.90
12115;DHT22;6121;49.810;6.418;2022-11-15T00:19:51;11.70;99.90
12115;DHT22;6121;49.810;6.418;2022-11-15T00:22:16;11.70;99.90
12115;DHT22;6121;49.810;6.418;2022-11-15T00:24:42;11.80;99.90
12115;DHT22;6121;49.810;6.418;2022-11-15T00:27:08;11.90;99.90
12115;DHT22;6121;49.810;6.418;2022-11-15T00:29:34;11.90;99.90
12115;DHT22;6121;49.810;6.418;2022-11-15T00:31:59;11.80;99.90
12115;DHT22;6121;49.810;6.418;2022-11-15T00:34:25;11.90;99.90
12115;DHT22;6121;49.810;6.418;2022-11-15T00:36:50;12.00;99.90
12115;DHT22;6121;49.810;6.418;2022-11-15T00:39:16;12.00;99.90
12115;DHT22;6121;49.810;6.418;2022-11-15T00:41:42;12.00;99.90
12115;DHT22;6121;49.810;6.418;2022-11-15T00:44:07;12.00;99.90
12115;DHT22;6121;49.810;6.418;2022-11-15T00:46:33;12.00;99.90
12115;DHT22;6121;49.810;6.418;2022-11-15T00:48:58;11.90;99.90
12115;DHT22;6121;49.810;6.418;2022-11-15T00:51:24;11.90;99.90
12115;DHT22;6121;49.810;6.418;2022-11-15T00:53:50;12.00;99.90
12115;DHT22;6121;49.810;6.418;2022-11-15T00:56:15;11.90;99.90
12115;DHT22;6121;49.810;6.418;2022-11-15T00:58:41;11.90;99.90
12115;DHT22;6121;49.810;6.418;2022-11-15T01:01:12;12.10;99.90
12115;DHT22;6121;49.810;6.418;2022-11-15T01:03:39;12.00;99.90
12115;DHT22;6121;49.810;6.418;2022-11-15T01:06:06;12.00;99.90
12115;DHT22;6121;49.810;6.418;2022-11-15T01:08:32;12.00;99.90
12115;DHT22;6121;49.810;6.418;2022-11-15T01:11:06;12.10;99.90
12115;DHT22;6121;49.810;6.418;2022-11-15T01:13:33;12.10;99.90
12115;DHT22;6121;49.810;6.418;2022-11-15T01:16:05;12.10;99.90
12115;DHT22;6121;49.810;6.418;2022-11-15T01:18:31;12.10;99.90
12115;DHT22;6121;49.810;6.418;2022-11-15T01:20:56;12.10;99.90
12115;DHT22;6121;49.810;6.418;2022-11-15T01:23:22;12.20;99.90
12115;DHT22;6121;49.810;6.418;2022-11-15T01:25:47;12.20;99.90
12115;DHT22;6121;49.810;6.418;2022-11-15T01:28:13;12.10;99.90
12115;DHT22;6121;49.810;6.418;2022-11-15T01:30:38;12.20;99.90
12115;DHT22;6121;49.810;6.418;2022-11-15T01:33:04;12.20;99.90
12115;DHT22;6121;49.810;6.418;2022-11-15T01:35:29;12.20;99.90
12115;DHT22;6121;49.810;6.418;2022-11-15T01:37:55;12.30;99.90
12115;DHT22;6121;49.810;6.418;2022-11-15T01:40:21;12.10;99.90
12115;DHT22;6121;49.810;6.418;2022-11-15T01:42:46;12.20;99.90
12115;DHT22;6121;49.810;6.418;2022-11-15T01:45:15;12.20;99.90
12115;DHT22;6121;49.810;6.418;2022-11-15T01:47:44;12.20;99.90
12115;DHT22;6121;49.810;6.418;2022-11-15T01:50:17;12.40;99.90
12115;DHT22;6121;49.810;6.418;2022-11-15T01:52:45;12.40;99.90
12115;DHT22;6121;49.810;6.418;2022-11-15T01:55:15;12.30;99.90
12115;DHT22;6121;49.810;6.418;2022-11-15T01:57:42;12.30;99.90
12115;DHT22;6121;49.810;6.418;2022-11-15T02:00:10;12.30;99.90
12115;DHT22;6121;49.810;6.418;2022-11-15T02:02:36;12.50;99.90
12115;DHT22;6121;49.810;6.418;2022-11-15T02:05:02;12.50;99.90
12115;DHT22;6121;49.810;6.418;2022-11-15T02:07:28;12.40;99.90
12115;DHT22;6121;49.810;6.418;2022-11-15T02:09:55;12.40;99.90
12115;DHT22;6121;49.810;6.418;2022-11-15T02:12:22;12.40;99.90
12115;DHT22;6121;49.810;6.418;2022-11-15T02:14:51;12.30;99.90
12115;DHT22;6121;49.810;6.418;2022-11-15T02:26:08;12.50;99.90
12115;DHT22;6121;49.810;6.418;2022-11-15T02:36:33;12.40;99.90
12115;DHT22;6121;49.810;6.418;2022-11-15T02:39:07;12.50;99.90
12115;DHT22;6121;49.810;6.418;2022-11-15T02:44:27;12.50;99.90
12115;DHT22;6121;49.810;6.418;2022-11-15T02:47:01;12.50;99.90
12115;DHT22;6121;49.810;6.418;2022-11-15T02:49:47;12.60;99.90
12115;DHT22;6121;49.810;6.418;2022-11-15T02:52:17;12.50;99.90
12115;DHT22;6121;49.810;6.418;2022-11-15T02:54:52;12.40;99.90
12115;DHT22;6121;49.810;6.418;2022-11-15T02:57:35;12.40;99.90
12115;DHT22;6121;49.810;6.418;2022-11-15T03:00:15;12.30;99.90
12115;DHT22;6121;49.810;6.418;2022-11-15T03:05:44;12.20;99.90
12115;DHT22;6121;49.810;6.418;2022-11-15T03:08:23;12.30;99.90
12115;DHT22;6121;49.810;6.418;2022-11-15T03:16:37;12.10;99.90
12115;DHT22;6121;49.810;6.418;2022-11-15T03:19:11;12.20;99.90
12115;DHT22;6121;49.810;6.418;2022-11-15T03:21:39;12.10;99.90
12115;DHT22;6121;49.810;6.418;2022-11-15T03:24:06;12.20;99.90
12115;DHT22;6121;49.810;6.418;2022-11-15T03:26:34;12.10;99.90
12115;DHT22;6121;49.810;6.418;2022-11-15T03:29:08;11.90;99.90
12115;DHT22;6121;49.810;6.418;2022-11-15T03:31:41;11.70;99.90
12115;DHT22;6121;49.810;6.418;2022-11-15T03:36:49;11.80;99.90
12115;DHT22;6121;49.810;6.418;2022-11-15T03:39:16;12.00;99.90
12115;DHT22;6121;49.810;6.418;2022-11-15T03:44:42;12.00;99.90
12115;DHT22;6121;49.810;6.418;2022-11-15T03:49:52;12.10;99.90
12115;DHT22;6121;49.810;6.418;2022-11-15T03:52:19;12.10;99.90
12115;DHT22;6121;49.810;6.418;2022-11-15T03:55:05;12.00;99.90
12115;DHT22;6121;49.810;6.418;2022-11-15T03:57:33;12.00;99.90
12115;DHT22;6121;49.810;6.418;2022-11-15T03:59:59;12.10;99.90
12115;DHT22;6121;49.810;6.418;2022-11-15T04:02:25;12.10;99.90
12115;DHT22;6121;49.810;6.418;2022-11-15T04:04:50;12.10;99.90
12115;DHT22;6121;49.810;6.418;2022-11-15T04:07:16;12.20;99.90
12115;DHT22;6121;49.810;6.418;2022-11-15T04:09:41;12.10;99.90
12115;DHT22;6121;49.810;6.418;2022-11-15T04:12:25;12.00;99.90
12115;DHT22;6121;49.810;6.418;2022-11-15T04:15:08;12.10;99.90
12115;DHT22;6121;49.810;6.418;2022-11-15T04:17:39;12.20;99.90
12115;DHT22;6121;49.810;6.418;2022-11-15T04:20:11;12.10;99.90
12115;DHT22;6121;49.810;6.418;2022-11-15T04:22:57;12.10;99.90
12115;DHT22;6121;49.810;6.418;2022-11-15T04:25:43;11.90;99.90
12115;DHT22;6121;49.810;6.418;2022-11-15T04:28:09;11.90;99.90
12115;DHT22;6121;49.810;6.418;2022-11-15T04:30:35;11.80;99.90
12115;DHT22;6121;49.810;6.418;2022-11-15T04:33:01;11.90;99.90
12115;DHT22;6121;49.810;6.418;2022-11-15T04:35:27;11.90;99.90
12115;DHT22;6121;49.810;6.418;2022-11-15T04:37:53;11.70;99.90
12115;DHT22;6121;49.810;6.418;2022-11-15T04:40:19;11.80;99.90
12115;DHT22;6121;49.810;6.418;2022-11-15T04:42:45;11.90;99.90
12115;DHT22;6121;49.810;6.418;2022-11-15T04:45:10;11.80;99.90
12115;DHT22;6121;49.810;6.418;2022-11-15T04:47:36;11.70;99.90
12115;DHT22;6121;49.810;6.418;2022-11-15T04:50:02;11.90;99.90
12115;DHT22;6121;49.810;6.418;2022-11-15T04:52:28;11.80;99.90
12115;DHT22;6121;49.810;6.418;2022-11-15T04:54:54;11.90;99.90
12115;DHT22;6121;49.810;6.418;2022-11-15T04:57:19;11.80;99.90
12115;DHT22;6121;49.810;6.418;2022-11-15T04:59:45;11.90;99.90
12115;DHT22;6121;49.810;6.418;2022-11-15T05:02:11;11.90;99.90
12115;DHT22;6121;49.810;6.418;2022-11-15T05:04:37;11.80;99.90
12115;DHT22;6121;49.810;6.418;2022-11-15T05:07:02;11.80;99.90
12115;DHT22;6121;49.810;6.418;2022-11-15T05:09:32;11.80;99.90
12115;DHT22;6121;49.810;6.418;2022-11-15T05:11:58;11.60;99.90
12115;DHT22;6121;49.810;6.418;2022-11-15T05:14:23;11.70;99.90
12115;DHT22;6121;49.810;6.418;2022-11-15T05:16:49;11.90;99.90
12115;DHT22;6121;49.810;6.418;2022-11-15T05:19:15;11.90;99.90
12115;DHT22;6121;49.810;6.418;2022-11-15T05:21:40;11.90;99.90
12115;DHT22;6121;49.810;6.418;2022-11-15T05:24:08;12.00;99.90
12115;DHT22;6121;49.810;6.418;2022-11-15T05:26:34;12.00;99.90
12115;DHT22;6121;49.810;6.418;2022-11-15T05:29:00;11.90;99.90
12115;DHT22;6121;49.810;6.418;2022-11-15T05:31:26;11.80;99.90
12115;DHT22;6121;49.810;6.418;2022-11-15T05:33:53;11.70;99.90
12115;DHT22;6121;49.810;6.418;2022-11-15T05:36:36;11.80;99.90
12115;DHT22;6121;49.810;6.418;2022-11-15T05:39:04;11.90;99.90
12115;DHT22;6121;49.810;6.418;2022-11-15T05:42:04;11.90;99.90
12115;DHT22;6121;49.810;6.418;2022-11-15T05:44:31;11.90;99.90
12115;DHT22;6121;49.810;6.418;2022-11-15T05:46:57;11.90;99.90
12115;DHT22;6121;49.810;6.418;2022-11-15T05:49:25;11.90;99.90
12115;DHT22;6121;49.810;6.418;2022-11-15T05:51:53;11.80;99.90
12115;DHT22;6121;49.810;6.418;2022-11-15T05:54:20;11.50;99.90
12115;DHT22;6121;49.810;6.418;2022-11-15T05:56:46;11.50;99.90
12115;DHT22;6121;49.810;6.418;2022-11-15T05:59:12;11.60;99.90
12115;DHT22;6121;49.810;6.418;2022-11-15T06:01:38;11.60;99.90
12115;DHT22;6121;49.810;6.418;2022-11-15T06:04:04;11.80;99.90
12115;DHT22;6121;49.810;6.418;2022-11-15T06:06:30;11.70;99.90
12115;DHT22;6121;49.810;6.418;2022-11-15T06:08:56;11.70;99.90
12115;DHT22;6121;49.810;6.418;2022-11-15T06:11:21;11.60;99.90
12115;DHT22;6121;49.810;6.418;2022-11-15T06:13:47;11.50;99.90
12115;DHT22;6121;49.810;6.418;2022-11-15T06:16:12;11.40;99.90
12115;DHT22;6121;49.810;6.418;2022-11-15T06:18:38;11.40;99.90
12115;DHT22;6121;49.810;6.418;2022-11-15T06:21:04;11.50;99.90
12115;DHT22;6121;49.810;6.418;2022-11-15T06:23:34;11.40;99.90
12115;DHT22;6121;49.810;6.418;2022-11-15T06:26:00;11.40;99.90
12115;DHT22;6121;49.810;6.418;2022-11-15T06:28:33;11.40;99.90
12115;DHT22;6121;49.810;6.418;2022-11-15T06:31:06;11.40;99.90
12115;DHT22;6121;49.810;6.418;2022-11-15T06:33:32;11.50;99.90
12115;DHT22;6121;49.810;6.418;2022-11-15T06:36:06;11.30;99.90
12115;DHT22;6121;49.810;6.418;2022-11-15T06:38:32;11.30;99.90
12115;DHT22;6121;49.810;6.418;2022-11-15T06:41:06;11.40;99.90
12115;DHT22;6121;49.810;6.418;2022-11-15T06:43:32;11.10;99.90
12115;DHT22;6121;49.810;6.418;2022-11-15T06:45:59;11.20;99.90
12115;DHT22;6121;49.810;6.418;2022-11-15T06:48:25;11.00;99.90
12115;DHT22;6121;49.810;6.418;2022-11-15T06:50:55;10.90;99.90
12115;DHT22;6121;49.810;6.418;2022-11-15T06:53:21;10.80;99.90
12115;DHT22;6121;49.810;6.418;2022-11-15T06:55:47;10.90;99.90
12115;DHT22;6121;49.810;6.418;2022-11-15T06:58:13;11.00;99.90
12115;DHT22;6121;49.810;6.418;2022-11-15T07:00:39;11.00;99.90
12115;DHT22;6121;49.810;6.418;2022-11-15T07:03:04;10.90;99.90
12115;DHT22;6121;49.810;6.418;2022-11-15T07:05:30;10.80;99.90
12115;DHT22;6121;49.810;6.418;2022-11-15T07:07:57;10.80;99.90
12115;DHT22;6121;49.810;6.418;2022-11-15T07:10:23;10.90;99.90
12115;DHT22;6121;49.810;6.418;2022-11-15T07:12:54;11.00;99.90
12115;DHT22;6121;49.810;6.418;2022-11-15T07:15:22;11.00;99.90
12115;DHT22;6121;49.810;6.418;2022-11-15T07:17:47;11.00;99.90
12115;DHT22;6121;49.810;6.418;2022-11-15T07:20:13;11.00;99.90
12115;DHT22;6121;49.810;6.418;2022-11-15T07:22:40;11.00;99.90
12115;DHT22;6121;49.810;6.418;2022-11-15T07:25:06;11.00;99.90
12115;DHT22;6121;49.810;6.418;2022-11-15T07:27:32;10.90;99.90
12115;DHT22;6121;49.810;6.418;2022-11-15T07:29:58;11.00;99.90
12115;DHT22;6121;49.810;6.418;2022-11-15T07:32:23;11.00;99.90
12115;DHT22;6121;49.810;6.418;2022-11-15T07:34:49;10.80;99.90
12115;DHT22;6121;49.810;6.418;2022-11-15T07:37:14;10.90;99.90
12115;DHT22;6121;49.810;6.418;2022-11-15T07:39:42;10.70;99.90
12115;DHT22;6121;49.810;6.418;2022-11-15T07:42:08;10.80;99.90
12115;DHT22;6121;49.810;6.418;2022-11-15T07:44:52;10.80;99.90
12115;DHT22;6121;49.810;6.418;2022-11-15T07:47:17;10.80;99.90
12115;DHT22;6121;49.810;6.418;2022-11-15T07:49:43;10.90;99.90
12115;DHT22;6121;49.810;6.418;2022-11-15T07:52:08;11.00;99.90
12115;DHT22;6121;49.810;6.418;2022-11-15T07:54:34;11.10;99.90
12115;DHT22;6121;49.810;6.418;2022-11-15T07:57:00;11.10;99.90
12115;DHT22;6121;49.810;6.418;2022-11-15T07:59:25;11.10;99.90
12115;DHT22;6121;49.810;6.418;2022-11-15T08:01:51;11.10;99.90
12115;DHT22;6121;49.810;6.418;2022-11-15T08:04:16;11.10;99.90
12115;DHT22;6121;49.810;6.418;2022-11-15T08:06:43;11.10;99.90
12115;DHT22;6121;49.810;6.418;2022-11-15T08:09:09;11.00;99.90
12115;DHT22;6121;49.810;6.418;2022-11-15T08:11:34;10.80;99.90
12115;DHT22;6121;49.810;6.418;2022-11-15T08:14:00;10.90;99.90
12115;DHT22;6121;49.810;6.418;2022-11-15T08:16:26;10.90;99.90
12115;DHT22;6121;49.810;6.418;2022-11-15T08:18:51;11.00;99.90
12115;DHT22;6121;49.810;6.418;2022-11-15T08:21:19;11.00;99.90
12115;DHT22;6121;49.810;6.418;2022-11-15T08:23:44;11.10;99.90
12115;DHT22;6121;49.810;6.418;2022-11-15T08:26:10;10.90;99.90
12115;DHT22;6121;49.810;6.418;2022-11-15T08:28:36;10.80;99.90
12115;DHT22;6121;49.810;6.418;2022-11-15T08:31:02;11.00;99.90
12115;DHT22;6121;49.810;6.418;2022-11-15T08:33:28;11.10;99.90
12115;DHT22;6121;49.810;6.418;2022-11-15T08:35:57;11.30;99.90
12115;DHT22;6121;49.810;6.418;2022-11-15T08:38:23;11.40;99.90
12115;DHT22;6121;49.810;6.418;2022-11-15T08:40:51;11.40;99.90
12115;DHT22;6121;49.810;6.418;2022-11-15T08:43:17;11.40;99.90
12115;DHT22;6121;49.810;6.418;2022-11-15T08:45:42;11.50;99.90
12115;DHT22;6121;49.810;6.418;2022-11-15T08:48:08;11.40;99.90
12115;DHT22;6121;49.810;6.418;2022-11-15T08:50:34;11.30;99.90
12115;DHT22;6121;49.810;6.418;2022-11-15T08:53:07;11.30;99.90
12115;DHT22;6121;49.810;6.418;2022-11-15T08:55:36;11.30;99.90
12115;DHT22;6121;49.810;6.418;2022-11-15T08:58:02;11.30;99.90
12115;DHT22;6121;49.810;6.418;2022-11-15T09:00:28;11.30;99.90
12115;DHT22;6121;49.810;6.418;2022-11-15T09:02:54;11.30;99.90
12115;DHT22;6121;49.810;6.418;2022-11-15T09:05:19;11.40;99.90
12115;DHT22;6121;49.810;6.418;2022-11-15T09:07:45;11.30;99.90
12115;DHT22;6121;49.810;6.418;2022-11-15T09:10:10;11.40;99.90
12115;DHT22;6121;49.810;6.418;2022-11-15T09:12:36;11.60;99.90
12115;DHT22;6121;49.810;6.418;2022-11-15T09:15:02;11.80;99.90
12115;DHT22;6121;49.810;6.418;2022-11-15T09:17:28;11.80;99.90
12115;DHT22;6121;49.810;6.418;2022-11-15T09:19:54;11.80;99.90
12115;DHT22;6121;49.810;6.418;2022-11-15T09:22:19;11.90;99.90
12115;DHT22;6121;49.810;6.418;2022-11-15T09:24:45;11.80;99.90
12115;DHT22;6121;49.810;6.418;2022-11-15T09:27:10;12.10;99.90
12115;DHT22;6121;49.810;6.418;2022-11-15T09:29:37;12.20;99.90
12115;DHT22;6121;49.810;6.418;2022-11-15T09:32:02;12.10;99.90
12115;DHT22;6121;49.810;6.418;2022-11-15T09:34:28;12.10;99.90
12115;DHT22;6121;49.810;6.418;2022-11-15T09:36:53;12.00;99.90
12115;DHT22;6121;49.810;6.418;2022-11-15T09:39:19;12.10;99.90
12115;DHT22;6121;49.810;6.418;2022-11-15T09:42:23;12.10;99.90
12115;DHT22;6121;49.810;6.418;2022-11-15T09:50:11;12.30;99.90
12115;DHT22;6121;49.810;6.418;2022-11-15T09:52:39;12.10;99.90
12115;DHT22;6121;49.810;6.418;2022-11-15T09:55:09;12.20;99.90
12115;DHT22;6121;49.810;6.418;2022-11-15T09:57:45;12.50;99.90
12115;DHT22;6121;49.810;6.418;2022-11-15T10:00:34;12.40;99.90
12115;DHT22;6121;49.810;6.418;2022-11-15T10:03:22;12.60;99.90
12115;DHT22;6121;49.810;6.418;2022-11-15T10:05:51;12.70;99.90
12115;DHT22;6121;49.810;6.418;2022-11-15T10:11:08;12.70;99.90
12115;DHT22;6121;49.810;6.418;2022-11-15T10:13:39;12.70;99.90
12115;DHT22;6121;49.810;6.418;2022-11-15T10:21:45;14.60;99.90
12115;DHT22;6121;49.810;6.418;2022-11-15T10:24:13;14.70;99.90
12115;DHT22;6121;49.810;6.418;2022-11-15T10:26:47;16.10;99.90
12115;DHT22;6121;49.810;6.418;2022-11-15T10:29:20;16.70;99.90
12115;DHT22;6121;49.810;6.418;2022-11-15T10:31:47;16.40;99.90
12115;DHT22;6121;49.810;6.418;2022-11-15T10:34:21;16.50;99.90
12115;DHT22;6121;49.810;6.418;2022-11-15T10:36:58;16.20;99.90
12115;DHT22;6121;49.810;6.418;2022-11-15T10:39:24;17.10;99.90
12115;DHT22;6121;49.810;6.418;2022-11-15T10:41:50;18.00;99.90
12115;DHT22;6121;49.810;6.418;2022-11-15T10:46:43;21.00;99.90
12115;DHT22;6121;49.810;6.418;2022-11-15T10:49:19;20.80;99.90
12115;DHT22;6121;49.810;6.418;2022-11-15T10:51:47;20.20;99.90
12115;DHT22;6121;49.810;6.418;2022-11-15T10:54:23;20.10;99.90
12115;DHT22;6121;49.810;6.418;2022-11-15T10:56:54;19.00;99.90
12115;DHT22;6121;49.810;6.418;2022-11-15T10:59:29;18.00;99.90
12115;DHT22;6121;49.810;6.418;2022-11-15T11:01:56;17.60;99.90
12115;DHT22;6121;49.810;6.418;2022-11-15T11:04:22;18.50;99.90
12115;DHT22;6121;49.810;6.418;2022-11-15T11:06:55;18.60;99.90
12115;DHT22;6121;49.810;6.418;2022-11-15T11:09:36;18.80;99.90
12115;DHT22;6121;49.810;6.418;2022-11-15T11:12:04;18.30;99.90
12115;DHT22;6121;49.810;6.418;2022-11-15T11:14:34;19.20;99.90
12115;DHT22;6121;49.810;6.418;2022-11-15T11:19:54;19.40;99.90
12115;DHT22;6121;49.810;6.418;2022-11-15T11:22:23;19.60;99.90
12115;DHT22;6121;49.810;6.418;2022-11-15T11:35:50;18.60;99.90
12115;DHT22;6121;49.810;6.418;2022-11-15T11:47:00;17.10;99.90
12115;DHT22;6121;49.810;6.418;2022-11-15T11:49:50;17.00;99.90
12115;DHT22;6121;49.810;6.418;2022-11-15T11:57:45;17.00;99.90
12115;DHT22;6121;49.810;6.418;2022-11-15T12:00:21;16.80;99.90
12115;DHT22;6121;49.810;6.418;2022-11-15T12:03:08;16.70;99.90
12115;DHT22;6121;49.810;6.418;2022-11-15T12:05:44;16.60;99.90
12115;DHT22;6121;49.810;6.418;2022-11-15T12:08:28;16.60;99.90
12115;DHT22;6121;49.810;6.418;2022-11-15T12:11:20;16.30;99.90
12115;DHT22;6121;49.810;6.418;2022-11-15T12:13:49;16.20;99.90
12115;DHT22;6121;49.810;6.418;2022-11-15T12:16:17;16.40;99.90
12115;DHT22;6121;49.810;6.418;2022-11-15T12:18:51;16.70;99.90
12115;DHT22;6121;49.810;6.418;2022-11-15T12:23:49;16.60;99.90
12115;DHT22;6121;49.810;6.418;2022-11-15T12:26:21;16.70;99.90
12115;DHT22;6121;49.810;6.418;2022-11-15T12:28:59;16.80;99.90
12115;DHT22;6121;49.810;6.418;2022-11-15T12:34:15;16.60;99.90
12115;DHT22;6121;49.810;6.418;2022-11-15T12:36:43;16.60;99.90
12115;DHT22;6121;49.810;6.418;2022-11-15T12:39:10;16.50;99.90
12115;DHT22;6121;49.810;6.418;2022-11-15T13:02:35;16.30;99.90
12115;DHT22;6121;49.810;6.418;2022-11-15T13:07:58;15.90;99.90
12115;DHT22;6121;49.810;6.418;2022-11-15T13:10:32;15.90;99.90
12115;DHT22;6121;49.810;6.418;2022-11-15T13:13:00;15.90;99.90
12115;DHT22;6121;49.810;6.418;2022-11-15T13:15:59;16.10;99.90
12115;DHT22;6121;49.810;6.418;2022-11-15T13:18:40;15.90;99.90
12115;DHT22;6121;49.810;6.418;2022-11-15T13:21:21;15.80;99.90
12115;DHT22;6121;49.810;6.418;2022-11-15T13:24:14;15.80;99.90
12115;DHT22;6121;49.810;6.418;2022-11-15T13:26:41;15.70;99.90
12115;DHT22;6121;49.810;6.418;2022-11-15T13:29:16;15.70;99.90
12115;DHT22;6121;49.810;6.418;2022-11-15T13:31:43;15.70;99.90
12115;DHT22;6121;49.810;6.418;2022-11-15T13:34:30;15.70;99.90
12115;DHT22;6121;49.810;6.418;2022-11-15T13:36:58;15.70;99.90
12115;DHT22;6121;49.810;6.418;2022-11-15T13:39:30;15.70;99.90
12115;DHT22;6121;49.810;6.418;2022-11-15T13:41:57;15.70;99.90
12115;DHT22;6121;49.810;6.418;2022-11-15T13:44:29;15.60;99.90
12115;DHT22;6121;49.810;6.418;2022-11-15T13:49:32;15.50;99.90
12115;DHT22;6121;49.810;6.418;2022-11-15T13:51:59;15.50;99.90
12115;DHT22;6121;49.810;6.418;2022-11-15T13:57:20;15.50;99.90
12115;DHT22;6121;49.810;6.418;2022-11-15T14:02:16;15.40;99.90
12115;DHT22;6121;49.810;6.418;2022-11-15T14:05:19;15.50;99.90
12115;DHT22;6121;49.810;6.418;2022-11-15T14:08:12;15.40;99.90
12115;DHT22;6121;49.810;6.418;2022-11-15T14:10:46;15.40;99.90
12115;DHT22;6121;49.810;6.418;2022-11-15T14:13:30;15.20;99.90
12115;DHT22;6121;49.810;6.418;2022-11-15T14:16:16;15.20;99.90
12115;DHT22;6121;49.810;6.418;2022-11-15T14:18:44;15.20;99.90
12115;DHT22;6121;49.810;6.418;2022-11-15T14:21:11;15.10;99.90
12115;DHT22;6121;49.810;6.418;2022-11-15T14:23:36;15.20;99.90
12115;DHT22;6121;49.810;6.418;2022-11-15T14:26:02;15.30;99.90
12115;DHT22;6121;49.810;6.418;2022-11-15T14:28:30;15.20;99.90
12115;DHT22;6121;49.810;6.418;2022-11-15T14:30:59;15.20;99.90
12115;DHT22;6121;49.810;6.418;2022-11-15T14:33:36;15.30;99.90
12115;DHT22;6121;49.810;6.418;2022-11-15T14:36:10;15.30;99.90
12115;DHT22;6121;49.810;6.418;2022-11-15T14:38:37;15.30;99.90
12115;DHT22;6121;49.810;6.418;2022-11-15T14:41:02;15.20;99.90
12115;DHT22;6121;49.810;6.418;2022-11-15T14:43:28;15.30;99.90
12115;DHT22;6121;49.810;6.418;2022-11-15T14:45:53;15.30;99.90
12115;DHT22;6121;49.810;6.418;2022-11-15T14:48:19;15.30;99.90
12115;DHT22;6121;49.810;6.418;2022-11-15T14:50:45;15.10;99.90
12115;DHT22;6121;49.810;6.418;2022-11-15T14:53:16;15.10;99.90
12115;DHT22;6121;49.810;6.418;2022-11-15T14:55:42;15.20;99.90
12115;DHT22;6121;49.810;6.418;2022-11-15T14:58:08;15.10;99.90
12115;DHT22;6121;49.810;6.418;2022-11-15T15:00:39;15.10;99.90
12115;DHT22;6121;49.810;6.418;2022-11-15T15:03:05;15.00;99.90
12115;DHT22;6121;49.810;6.418;2022-11-15T15:05:40;15.00;99.90
12115;DHT22;6121;49.810;6.418;2022-11-15T15:08:06;14.90;99.90
12115;DHT22;6121;49.810;6.418;2022-11-15T15:10:37;14.90;99.90
12115;DHT22;6121;49.810;6.418;2022-11-15T15:13:04;15.00;99.90
12115;DHT22;6121;49.810;6.418;2022-11-15T15:15:35;15.00;99.90
12115;DHT22;6121;49.810;6.418;2022-11-15T15:18:02;15.00;99.90
12115;DHT22;6121;49.810;6.418;2022-11-15T15:20:28;15.10;99.90
12115;DHT22;6121;49.810;6.418;2022-11-15T15:22:54;15.00;99.90
12115;DHT22;6121;49.810;6.418;2022-11-15T15:27:49;14.90;99.90
12115;DHT22;6121;49.810;6.418;2022-11-15T15:30:15;15.00;99.90
12115;DHT22;6121;49.810;6.418;2022-11-15T15:32:40;14.90;99.90
12115;DHT22;6121;49.810;6.418;2022-11-15T15:35:07;14.90;99.90
12115;DHT22;6121;49.810;6.418;2022-11-15T15:37:36;14.90;99.90
12115;DHT22;6121;49.810;6.418;2022-11-15T15:40:01;14.80;99.90
12115;DHT22;6121;49.810;6.418;2022-11-15T15:42:27;14.80;99.90
12115;DHT22;6121;49.810;6.418;2022-11-15T15:44:52;14.70;99.90
12115;DHT22;6121;49.810;6.418;2022-11-15T15:47:21;14.80;99.90
12115;DHT22;6121;49.810;6.418;2022-11-15T15:49:47;14.80;99.90
12115;DHT22;6121;49.810;6.418;2022-11-15T15:52:13;14.70;99.90
12115;DHT22;6121;49.810;6.418;2022-11-15T15:54:39;14.70;99.90
12115;DHT22;6121;49.810;6.418;2022-11-15T15:57:06;14.70;99.90
12115;DHT22;6121;49.810;6.418;2022-11-15T15:59:31;14.70;99.90
12115;DHT22;6121;49.810;6.418;2022-11-15T16:01:57;14.70;99.90
12115;DHT22;6121;49.810;6.418;2022-11-15T16:04:22;14.80;99.90
12115;DHT22;6121;49.810;6.418;2022-11-15T16:06:48;14.70;99.90
12115;DHT22;6121;49.810;6.418;2022-11-15T16:09:18;14.70;99.90
12115;DHT22;6121;49.810;6.418;2022-11-15T16:11:45;14.70;99.90
12115;DHT22;6121;49.810;6.418;2022-11-15T16:14:11;14.60;99.90
12115;DHT22;6121;49.810;6.418;2022-11-15T16:16:37;14.60;99.90
12115;DHT22;6121;49.810;6.418;2022-11-15T16:19:03;14.50;99.90
12115;DHT22;6121;49.810;6.418;2022-11-15T16:21:29;14.40;99.90
12115;DHT22;6121;49.810;6.418;2022-11-15T16:23:55;14.30;99.90
12115;DHT22;6121;49.810;6.418;2022-11-15T16:26:25;14.30;99.90
12115;DHT22;6121;49.810;6.418;2022-11-15T16:28:52;14.30;99.90
12115;DHT22;6121;49.810;6.418;2022-11-15T16:31:17;14.30;99.90
12115;DHT22;6121;49.810;6.418;2022-11-15T16:33:45;14.20;99.90
12115;DHT22;6121;49.810;6.418;2022-11-15T16:36:31;14.30;99.90
12115;DHT22;6121;49.810;6.418;2022-11-15T16:38:58;14.30;99.90
12115;DHT22;6121;49.810;6.418;2022-11-15T16:41:25;14.20;99.90
12115;DHT22;6121;49.810;6.418;2022-11-15T16:43:51;14.10;99.90
12115;DHT22;6121;49.810;6.418;2022-11-15T16:46:35;14.20;99.90
12115;DHT22;6121;49.810;6.418;2022-11-15T16:49:00;14.00;99.90
12115;DHT22;6121;49.810;6.418;2022-11-15T16:51:26;14.00;99.90
12115;DHT22;6121;49.810;6.418;2022-11-15T16:53:52;14.10;99.90
12115;DHT22;6121;49.810;6.418;2022-11-15T16:56:23;14.00;99.90
12115;DHT22;6121;49.810;6.418;2022-11-15T16:58:50;13.80;99.90
12115;DHT22;6121;49.810;6.418;2022-11-15T17:01:18;13.80;99.90
12115;DHT22;6121;49.810;6.418;2022-11-15T17:03:45;13.90;99.90
12115;DHT22;6121;49.810;6.418;2022-11-15T17:06:12;13.90;99.90
12115;DHT22;6121;49.810;6.418;2022-11-15T17:08:38;13.80;99.90
12115;DHT22;6121;49.810;6.418;2022-11-15T17:11:07;13.90;99.90
12115;DHT22;6121;49.810;6.418;2022-11-15T17:13:33;13.80;99.90
12115;DHT22;6121;49.810;6.418;2022-11-15T17:16:10;13.80;99.90
12115;DHT22;6121;49.810;6.418;2022-11-15T17:18:36;13.80;99.90
12115;DHT22;6121;49.810;6.418;2022-11-15T17:21:14;13.70;99.90
12115;DHT22;6121;49.810;6.418;2022-11-15T17:23:41;13.70;99.90
12115;DHT22;6121;49.810;6.418;2022-11-15T17:26:08;13.80;99.90
12115;DHT22;6121;49.810;6.418;2022-11-15T17:28:36;13.70;99.90
12115;DHT22;6121;49.810;6.418;2022-11-15T17:31:04;13.70;99.90
12115;DHT22;6121;49.810;6.418;2022-11-15T17:33:30;13.70;99.90
12115;DHT22;6121;49.810;6.418;2022-11-15T17:36:02;13.70;99.90
12115;DHT22;6121;49.810;6.418;2022-11-15T17:38:28;13.50;99.90
12115;DHT22;6121;49.810;6.418;2022-11-15T17:43:30;13.70;99.90
12115;DHT22;6121;49.810;6.418;2022-11-15T17:45:56;13.60;99.90
12115;DHT22;6121;49.810;6.418;2022-11-15T17:48:22;13.60;99.90
12115;DHT22;6121;49.810;6.418;2022-11-15T17:50:58;13.60;99.90
12115;DHT22;6121;49.810;6.418;2022-11-15T17:53:24;13.60;99.90
12115;DHT22;6121;49.810;6.418;2022-11-15T17:55:50;13.40;99.90
12115;DHT22;6121;49.810;6.418;2022-11-15T17:58:16;13.40;99.90